PWSweather.com
Personal Weather Stations
Station Observations
TTUSTEM
Tennessee Tech University, Cookeville, TN 38501

Tennessee Tech UniversityCookeville, TN 38501

Lat: 36.173, Lon: -85.509

Elevation: 1122

Station Type: Davis Vantage Pro2

http://www.tntech.edu/stem

Latest ConditionsUpdated 8:35:10 AM CDT Saturday, Mar 25, 2017
Currently Today's Max Today's Min Today's Average
Temperature 63.9°F17.7°C 65.3°F18.5°C 62.3°F16.8°C 63.8°F17.7°C
Dew Point 52.1°F11.2°C 52.2°F11.2°C 50.8°F10.4°C 51.6°F10.9°C
Winds 6.8 mph S10.9 kmh S 7.0 mph S11.3 kmh S - 3.7 mph 6.0 kmh
Wind Gusts 19.0 mph30.6 kmh 19.0 mph30.6 kmh - -
Humidity 65% 67% 61% 64%
Pressure 30.12 in1020.0 mb 30.13 in1020.3 mb 30.09 in1019.0 mb -
Hour Temp Dew Point Humidity Winds Wind Gusts Pressure Precip Precip Rate Daily Precip Total
08:35 AM 63.9°F17.7°C 52.1°F11.2°C 65% 6.8 mph S10.9 kmh S 19.0 mph30.6 kmh 30.12 in1020.0 mb 0.00 in0.0 mm 0.00 in0.0 mm 0.00 in0.0 mm
08:30 AM 63.6°F17.6°C 52.2°F11.2°C 66% 7.0 mph S11.3 kmh S 19.0 mph30.6 kmh 30.12 in1020.0 mb 0.00 in0.0 mm 0.00 in0.0 mm 0.00 in0.0 mm
08:18 AM 63.4°F17.4°C 52.0°F11.1°C 66% 4.1 mph S6.6 kmh S 14.0 mph22.5 kmh 30.12 in1020.0 mb 0.00 in0.0 mm 0.00 in0.0 mm 0.00 in0.0 mm
08:13 AM 63.2°F17.3°C 51.8°F11.0°C 66% 3.7 mph SSE6.0 kmh SSE 14.0 mph22.5 kmh 30.11 in1019.6 mb 0.00 in0.0 mm 0.00 in0.0 mm 0.00 in0.0 mm
08:00 AM 63.0°F17.2°C 51.6°F10.9°C 66% 6.7 mph S10.8 kmh S 11.0 mph17.7 kmh 30.11 in1019.6 mb 0.00 in0.0 mm 0.00 in0.0 mm 0.00 in0.0 mm
07:55 AM 62.9°F17.2°C 51.5°F10.8°C 66% 1.8 mph S2.9 kmh S 11.0 mph17.7 kmh 30.11 in1019.6 mb 0.00 in0.0 mm 0.00 in0.0 mm 0.00 in0.0 mm
07:43 AM 62.7°F17.1°C 51.7°F10.9°C 67% 2.9 mph S4.7 kmh S 13.0 mph20.9 kmh 30.12 in1020.0 mb 0.00 in0.0 mm 0.00 in0.0 mm 0.00 in0.0 mm
07:38 AM 62.7°F17.1°C 51.7°F10.9°C 67% 5.0 mph S8.0 kmh S 13.0 mph20.9 kmh 30.11 in1019.6 mb 0.00 in0.0 mm 0.00 in0.0 mm 0.00 in0.0 mm
07:25 AM 62.4°F16.9°C 51.5°F10.8°C 67% 3.3 mph S5.3 kmh S 10.0 mph16.1 kmh 30.11 in1019.6 mb 0.00 in0.0 mm 0.00 in0.0 mm 0.00 in0.0 mm
07:20 AM 62.3°F16.8°C 51.4°F10.8°C 67% 3.7 mph S6.0 kmh S 9.0 mph14.5 kmh 30.11 in1019.6 mb 0.00 in0.0 mm 0.00 in0.0 mm 0.00 in0.0 mm
07:08 AM 62.3°F16.8°C 51.4°F10.8°C 67% 2.6 mph SSW4.2 kmh SSW 10.0 mph16.1 kmh 30.11 in1019.6 mb 0.00 in0.0 mm 0.00 in0.0 mm 0.00 in0.0 mm
07:03 AM 62.3°F16.8°C 51.0°F10.6°C 66% 3.8 mph SSW6.1 kmh SSW 10.0 mph16.1 kmh 30.11 in1019.6 mb 0.00 in0.0 mm 0.00 in0.0 mm 0.00 in0.0 mm
06:53 AM 62.5°F16.9°C 51.1°F10.6°C 66% 4.3 mph SSE6.9 kmh SSE 10.0 mph16.1 kmh 30.10 in1019.3 mb 0.00 in0.0 mm 0.00 in0.0 mm 0.00 in0.0 mm
06:48 AM 62.6°F17.0°C 51.2°F10.7°C 66% 3.0 mph SSE4.8 kmh SSE 9.0 mph14.5 kmh 30.10 in1019.3 mb 0.00 in0.0 mm 0.00 in0.0 mm 0.00 in0.0 mm
06:36 AM 62.7°F17.1°C 50.9°F10.5°C 65% 2.3 mph SSE3.7 kmh SSE 9.0 mph14.5 kmh 30.10 in1019.3 mb 0.00 in0.0 mm 0.00 in0.0 mm 0.00 in0.0 mm
06:31 AM 62.8°F17.1°C 51.0°F10.6°C 65% 1.4 mph S2.3 kmh S 9.0 mph14.5 kmh 30.10 in1019.3 mb 0.00 in0.0 mm 0.00 in0.0 mm 0.00 in0.0 mm
06:20 AM 63.0°F17.2°C 50.8°F10.4°C 64% 2.3 mph S3.7 kmh S 8.0 mph12.9 kmh 30.10 in1019.3 mb 0.00 in0.0 mm 0.00 in0.0 mm 0.00 in0.0 mm
06:15 AM 63.1°F17.3°C 50.9°F10.5°C 64% 4.0 mph S6.4 kmh S 14.0 mph22.5 kmh 30.10 in1019.3 mb 0.00 in0.0 mm 0.00 in0.0 mm 0.00 in0.0 mm
06:03 AM 63.4°F17.4°C 51.2°F10.7°C 64% 5.0 mph S8.0 kmh S 14.0 mph22.5 kmh 30.10 in1019.3 mb 0.00 in0.0 mm 0.00 in0.0 mm 0.00 in0.0 mm
05:58 AM 63.4°F17.4°C 51.2°F10.7°C 64% 3.7 mph S6.0 kmh S 12.0 mph19.3 kmh 30.10 in1019.3 mb 0.00 in0.0 mm 0.00 in0.0 mm 0.00 in0.0 mm
05:46 AM 63.6°F17.6°C 51.4°F10.8°C 64% 5.2 mph SSW8.4 kmh SSW 12.0 mph19.3 kmh 30.10 in1019.3 mb 0.00 in0.0 mm 0.00 in0.0 mm 0.00 in0.0 mm
05:41 AM 63.7°F17.6°C 51.0°F10.6°C 63% 3.8 mph S6.1 kmh S 12.0 mph19.3 kmh 30.10 in1019.3 mb 0.00 in0.0 mm 0.00 in0.0 mm 0.00 in0.0 mm
05:29 AM 63.8°F17.7°C 51.1°F10.6°C 63% 4.5 mph S7.2 kmh S 12.0 mph19.3 kmh 30.09 in1019.0 mb 0.00 in0.0 mm 0.00 in0.0 mm 0.00 in0.0 mm
05:24 AM 63.9°F17.7°C 51.2°F10.7°C 63% 4.1 mph S6.6 kmh S 11.0 mph17.7 kmh 30.09 in1019.0 mb 0.00 in0.0 mm 0.00 in0.0 mm 0.00 in0.0 mm
05:11 AM 64.0°F17.8°C 51.3°F10.7°C 63% 4.2 mph S6.8 kmh S 14.0 mph22.5 kmh 30.09 in1019.0 mb 0.00 in0.0 mm 0.00 in0.0 mm 0.00 in0.0 mm
05:06 AM 63.9°F17.7°C 51.6°F10.9°C 64% 3.9 mph SSE6.3 kmh SSE 14.0 mph22.5 kmh 30.09 in1019.0 mb 0.00 in0.0 mm 0.00 in0.0 mm 0.00 in0.0 mm
04:55 AM 64.0°F17.8°C 51.7°F10.9°C 64% 4.2 mph SSE6.8 kmh SSE 11.0 mph17.7 kmh 30.09 in1019.0 mb 0.00 in0.0 mm 0.00 in0.0 mm 0.00 in0.0 mm
04:50 AM 64.0°F17.8°C 51.7°F10.9°C 64% 4.2 mph SSW6.8 kmh SSW 11.0 mph17.7 kmh 30.09 in1019.0 mb 0.00 in0.0 mm 0.00 in0.0 mm 0.00 in0.0 mm
04:37 AM 64.1°F17.8°C 51.8°F11.0°C 64% 3.1 mph S5.0 kmh S 12.0 mph19.3 kmh 30.09 in1019.0 mb 0.00 in0.0 mm 0.00 in0.0 mm 0.00 in0.0 mm
04:32 AM 64.1°F17.8°C 51.8°F11.0°C 64% 5.1 mph S8.2 kmh S 13.0 mph20.9 kmh 30.09 in1019.0 mb 0.00 in0.0 mm 0.00 in0.0 mm 0.00 in0.0 mm
04:20 AM 64.0°F17.8°C 51.7°F10.9°C 64% 3.7 mph S6.0 kmh S 13.0 mph20.9 kmh 30.09 in1019.0 mb 0.00 in0.0 mm 0.00 in0.0 mm 0.00 in0.0 mm
04:15 AM 63.9°F17.7°C 51.6°F10.9°C 64% 4.7 mph S7.6 kmh S 13.0 mph20.9 kmh 30.09 in1019.0 mb 0.00 in0.0 mm 0.00 in0.0 mm 0.00 in0.0 mm
04:05 AM 63.8°F17.7°C 51.5°F10.8°C 64% 3.3 mph SSE5.3 kmh SSE 10.0 mph16.1 kmh 30.09 in1019.0 mb 0.00 in0.0 mm 0.00 in0.0 mm 0.00 in0.0 mm
04:00 AM 63.8°F17.7°C 51.5°F10.8°C 64% 2.8 mph SSE4.5 kmh SSE 10.0 mph16.1 kmh 30.10 in1019.3 mb 0.00 in0.0 mm 0.00 in0.0 mm 0.00 in0.0 mm
03:48 AM 63.8°F17.7°C 51.5°F10.8°C 64% 3.8 mph S6.1 kmh S 9.0 mph14.5 kmh 30.10 in1019.3 mb 0.00 in0.0 mm 0.00 in0.0 mm 0.00 in0.0 mm
03:43 AM 63.8°F17.7°C 51.5°F10.8°C 64% 2.7 mph SSE4.3 kmh SSE 10.0 mph16.1 kmh 30.10 in1019.3 mb 0.00 in0.0 mm 0.00 in0.0 mm 0.00 in0.0 mm
03:32 AM 63.9°F17.7°C 51.6°F10.9°C 64% 5.1 mph S8.2 kmh S 11.0 mph17.7 kmh 30.10 in1019.3 mb 0.00 in0.0 mm 0.00 in0.0 mm 0.00 in0.0 mm
03:27 AM 63.9°F17.7°C 51.6°F10.9°C 64% 5.5 mph SSE8.9 kmh SSE 11.0 mph17.7 kmh 30.10 in1019.3 mb 0.00 in0.0 mm 0.00 in0.0 mm 0.00 in0.0 mm
03:15 AM 63.9°F17.7°C 51.6°F10.9°C 64% 5.2 mph S8.4 kmh S 11.0 mph17.7 kmh 30.11 in1019.6 mb 0.00 in0.0 mm 0.00 in0.0 mm 0.00 in0.0 mm
03:10 AM 63.9°F17.7°C 51.6°F10.9°C 64% 5.3 mph S8.5 kmh S 11.0 mph17.7 kmh 30.11 in1019.6 mb 0.00 in0.0 mm 0.00 in0.0 mm 0.00 in0.0 mm
02:59 AM 63.9°F17.7°C 51.6°F10.9°C 64% 2.9 mph SSE4.7 kmh SSE 7.0 mph11.3 kmh 30.11 in1019.6 mb 0.00 in0.0 mm 0.00 in0.0 mm 0.00 in0.0 mm
02:54 AM 64.0°F17.8°C 51.7°F10.9°C 64% 2.8 mph S4.5 kmh S 7.0 mph11.3 kmh 30.11 in1019.6 mb 0.00 in0.0 mm 0.00 in0.0 mm 0.00 in0.0 mm
02:43 AM 64.1°F17.8°C 51.8°F11.0°C 64% 2.7 mph SSE4.3 kmh SSE 7.0 mph11.3 kmh 30.11 in1019.6 mb 0.00 in0.0 mm 0.00 in0.0 mm 0.00 in0.0 mm
02:38 AM 64.1°F17.8°C 51.8°F11.0°C 64% 1.8 mph S2.9 kmh S 7.0 mph11.3 kmh 30.11 in1019.6 mb 0.00 in0.0 mm 0.00 in0.0 mm 0.00 in0.0 mm
02:27 AM 64.1°F17.8°C 51.8°F11.0°C 64% 3.5 mph SSE5.6 kmh SSE 12.0 mph19.3 kmh 30.11 in1019.6 mb 0.00 in0.0 mm 0.00 in0.0 mm 0.00 in0.0 mm
02:22 AM 64.1°F17.8°C 51.8°F11.0°C 64% 2.6 mph S4.2 kmh S 12.0 mph19.3 kmh 30.12 in1020.0 mb 0.00 in0.0 mm 0.00 in0.0 mm 0.00 in0.0 mm
02:10 AM 64.2°F17.9°C 51.9°F11.1°C 64% 2.3 mph S3.7 kmh S 9.0 mph14.5 kmh 30.12 in1020.0 mb 0.00 in0.0 mm 0.00 in0.0 mm 0.00 in0.0 mm
02:05 AM 64.3°F17.9°C 52.0°F11.1°C 64% 2.0 mph SSW3.2 kmh SSW 9.0 mph14.5 kmh 30.12 in1020.0 mb 0.00 in0.0 mm 0.00 in0.0 mm 0.00 in0.0 mm
01:54 AM 64.5°F18.1°C 51.8°F11.0°C 63% 4.2 mph S6.8 kmh S 7.0 mph11.3 kmh 30.12 in1020.0 mb 0.00 in0.0 mm 0.00 in0.0 mm 0.00 in0.0 mm
01:49 AM 64.5°F18.1°C 51.8°F11.0°C 63% 4.1 mph SSE6.6 kmh SSE 10.0 mph16.1 kmh 30.12 in1020.0 mb 0.00 in0.0 mm 0.00 in0.0 mm 0.00 in0.0 mm
01:37 AM 64.7°F18.2°C 51.5°F10.8°C 62% 3.5 mph S5.6 kmh S 10.0 mph16.1 kmh 30.13 in1020.3 mb 0.00 in0.0 mm 0.00 in0.0 mm 0.00 in0.0 mm
01:32 AM 64.7°F18.2°C 51.5°F10.8°C 62% 3.3 mph SSE5.3 kmh SSE 9.0 mph14.5 kmh 30.12 in1020.0 mb 0.00 in0.0 mm 0.00 in0.0 mm 0.00 in0.0 mm
01:20 AM 64.9°F18.3°C 51.7°F10.9°C 62% 4.5 mph S7.2 kmh S 9.0 mph14.5 kmh 30.12 in1020.0 mb 0.00 in0.0 mm 0.00 in0.0 mm 0.00 in0.0 mm
01:15 AM 64.9°F18.3°C 51.7°F10.9°C 62% 2.5 mph SSE4.0 kmh SSE 9.0 mph14.5 kmh 30.12 in1020.0 mb 0.00 in0.0 mm 0.00 in0.0 mm 0.00 in0.0 mm
01:04 AM 65.0°F18.3°C 51.8°F11.0°C 62% 3.4 mph S5.5 kmh S 10.0 mph16.1 kmh 30.12 in1020.0 mb 0.00 in0.0 mm 0.00 in0.0 mm 0.00 in0.0 mm
12:59 AM 65.0°F18.3°C 51.8°F11.0°C 62% 3.8 mph S6.1 kmh S 10.0 mph16.1 kmh 30.12 in1020.0 mb 0.00 in0.0 mm 0.00 in0.0 mm 0.00 in0.0 mm
12:47 AM 65.0°F18.3°C 51.8°F11.0°C 62% 3.5 mph S5.6 kmh S 8.0 mph12.9 kmh 30.12 in1020.0 mb 0.00 in0.0 mm 0.00 in0.0 mm 0.00 in0.0 mm
12:42 AM 65.0°F18.3°C 51.8°F11.0°C 62% 4.2 mph S6.8 kmh S 8.0 mph12.9 kmh 30.12 in1020.0 mb 0.00 in0.0 mm 0.00 in0.0 mm 0.00 in0.0 mm
12:31 AM 65.1°F18.4°C 51.5°F10.8°C 61% 3.5 mph SSE5.6 kmh SSE 10.0 mph16.1 kmh 30.13 in1020.3 mb 0.00 in0.0 mm 0.00 in0.0 mm 0.00 in0.0 mm
12:26 AM 65.2°F18.4°C 51.6°F10.9°C 61% 2.7 mph S4.3 kmh S 10.0 mph16.1 kmh 30.13 in1020.3 mb 0.00 in0.0 mm 0.00 in0.0 mm 0.00 in0.0 mm
12:15 AM 65.3°F18.5°C 51.7°F10.9°C 61% 3.6 mph SSE5.8 kmh SSE 12.0 mph19.3 kmh 30.12 in1020.0 mb 0.00 in0.0 mm 0.00 in0.0 mm 0.00 in0.0 mm
12:10 AM 65.3°F18.5°C 51.7°F10.9°C 61% 3.2 mph SSE5.1 kmh SSE 12.0 mph19.3 kmh 30.13 in1020.3 mb 0.00 in0.0 mm 0.00 in0.0 mm 0.00 in0.0 mm